createdAt,value
2022-10-28T00:00:12.268Z,9.75
2022-10-28T00:02:45.812Z,9.72
2022-10-28T00:05:20.038Z,9.73
2022-10-28T00:07:52.890Z,9.73
2022-10-28T00:10:25.826Z,9.74
2022-10-28T00:12:58.278Z,9.73
2022-10-28T00:15:31.507Z,9.70
2022-10-28T00:18:04.384Z,9.71
2022-10-28T00:20:37.391Z,9.70
2022-10-28T00:23:10.828Z,9.67
2022-10-28T00:25:43.450Z,9.65
2022-10-28T00:28:16.008Z,9.64
2022-10-28T00:30:48.651Z,9.64
2022-10-28T00:33:21.167Z,9.63
2022-10-28T00:35:55.398Z,9.62
2022-10-28T00:38:29.078Z,9.59
2022-10-28T00:41:01.692Z,9.54
2022-10-28T00:43:42.699Z,9.48
2022-10-28T00:46:21.716Z,9.45
2022-10-28T00:48:57.337Z,9.42
2022-10-28T00:51:31.945Z,9.35
2022-10-28T00:54:06.436Z,9.31
2022-10-28T00:56:44.950Z,9.27
2022-10-28T00:59:21.537Z,9.25
2022-10-28T01:01:54.672Z,9.22
2022-10-28T01:04:27.407Z,9.19
2022-10-28T01:07:01.907Z,9.15
2022-10-28T01:09:34.768Z,9.12
2022-10-28T01:12:19.878Z,9.10
2022-10-28T01:15:11.448Z,9.08
2022-10-28T01:18:02.458Z,9.05
2022-10-28T01:21:03.495Z,9.02
2022-10-28T01:23:45.998Z,8.97
2022-10-28T01:26:40.177Z,8.91
2022-10-28T01:29:37.267Z,8.86
2022-10-28T01:32:29.387Z,8.80
2022-10-28T01:35:10.727Z,8.73
2022-10-28T01:37:54.945Z,8.68
2022-10-28T01:40:35.918Z,8.61
2022-10-28T01:43:14.548Z,8.58
2022-10-28T01:45:58.087Z,8.50
2022-10-28T01:51:19.067Z,8.42
2022-10-28T01:53:57.163Z,8.42
2022-10-28T01:56:35.547Z,8.42
2022-10-28T01:59:11.117Z,8.41
2022-10-28T02:01:44.201Z,8.40
2022-10-28T02:04:16.827Z,8.41
2022-10-28T02:06:53.718Z,8.39
2022-10-28T02:09:38.909Z,8.38
2022-10-28T02:12:27.653Z,8.36
2022-10-28T02:15:27.878Z,8.33
2022-10-28T02:18:22.227Z,8.29
2022-10-28T02:20:54.007Z,8.21
2022-10-28T02:23:38.748Z,8.14
2022-10-28T02:26:18.890Z,8.14
2022-10-28T02:28:57.827Z,8.15
2022-10-28T02:31:35.305Z,8.14
2022-10-28T02:34:13.827Z,8.12
2022-10-28T02:36:52.337Z,8.09
2022-10-28T02:39:30.188Z,8.09
2022-10-28T02:42:07.448Z,8.08
2022-10-28T02:44:46.977Z,8.07
2022-10-28T02:47:24.839Z,8.05
2022-10-28T02:50:01.672Z,8.05
2022-10-28T02:52:36.495Z,8.05
2022-10-28T02:55:11.717Z,8.02
2022-10-28T02:57:48.815Z,7.98
2022-10-28T03:00:24.908Z,7.95
2022-10-28T03:02:57.342Z,7.93
2022-10-28T03:05:30.089Z,7.93
2022-10-28T03:08:02.588Z,7.92
2022-10-28T03:10:36.979Z,7.92
2022-10-28T03:13:09.429Z,7.90
2022-10-28T03:15:42.028Z,7.89
2022-10-28T03:18:14.537Z,7.84
2022-10-28T03:20:47.588Z,7.83
2022-10-28T03:23:20.088Z,7.82
2022-10-28T03:25:52.691Z,7.84
2022-10-28T03:28:25.218Z,7.85
2022-10-28T03:30:57.868Z,7.87
2022-10-28T03:33:30.568Z,7.89
2022-10-28T03:36:03.474Z,7.92
2022-10-28T03:38:36.075Z,7.92
2022-10-28T03:41:08.889Z,7.89
2022-10-28T03:43:41.297Z,7.86
2022-10-28T03:46:14.378Z,7.85
2022-10-28T03:48:46.999Z,7.83
2022-10-28T03:51:23.127Z,7.80
2022-10-28T03:53:55.770Z,7.82
2022-10-28T03:56:28.468Z,7.86
2022-10-28T03:59:01.239Z,7.88
2022-10-28T04:01:34.133Z,7.89
2022-10-28T04:04:07.198Z,7.88
2022-10-28T04:06:39.889Z,7.87
2022-10-28T04:09:12.309Z,7.87
2022-10-28T04:11:45.250Z,7.86
2022-10-28T04:14:20.179Z,7.86
2022-10-28T04:16:53.140Z,7.83
2022-10-28T04:19:25.798Z,7.83
2022-10-28T04:21:58.718Z,7.82
2022-10-28T04:24:31.438Z,7.82
2022-10-28T04:27:04.549Z,7.81
2022-10-28T04:29:36.986Z,7.76
2022-10-28T04:32:12.387Z,7.71
2022-10-28T04:34:44.727Z,7.67
2022-10-28T04:37:20.405Z,7.65
2022-10-28T04:39:53.268Z,7.62
2022-10-28T04:42:26.738Z,7.61
2022-10-28T04:44:59.208Z,7.61
2022-10-28T04:47:31.998Z,7.59
2022-10-28T04:50:04.998Z,7.59
2022-10-28T04:52:37.996Z,7.60
2022-10-28T04:55:11.479Z,7.59
2022-10-28T04:57:42.217Z,7.56
2022-10-28T05:00:16.356Z,7.49
2022-10-28T05:02:49.418Z,7.51
2022-10-28T05:05:22.334Z,7.55
2022-10-28T05:07:56.353Z,7.60
2022-10-28T05:10:30.278Z,7.63
2022-10-28T05:13:02.898Z,7.67
2022-10-28T05:15:35.711Z,7.69
2022-10-28T05:18:07.877Z,7.71
2022-10-28T05:20:40.305Z,7.70
2022-10-28T05:23:13.408Z,7.80
2022-10-28T05:25:46.260Z,7.88
2022-10-28T05:28:20.478Z,7.94
2022-10-28T05:30:52.857Z,7.95
2022-10-28T05:33:26.639Z,7.97
2022-10-28T05:36:00.037Z,8.03
2022-10-28T05:38:33.209Z,8.07
2022-10-28T05:41:05.959Z,8.13
2022-10-28T05:43:40.448Z,8.19
2022-10-28T05:46:13.039Z,8.25
2022-10-28T05:48:45.787Z,8.32
2022-10-28T05:51:18.418Z,8.37
2022-10-28T05:53:51.953Z,8.42
2022-10-28T05:56:24.888Z,8.46
2022-10-28T05:58:58.367Z,8.50
2022-10-28T06:01:33.851Z,8.54
2022-10-28T06:04:06.938Z,8.61
2022-10-28T06:06:39.752Z,8.68
2022-10-28T06:09:15.678Z,8.75
2022-10-28T06:11:47.794Z,8.90
2022-10-28T06:14:20.668Z,8.99
2022-10-28T06:16:53.629Z,9.05
2022-10-28T06:19:28.638Z,9.06
2022-10-28T06:22:01.251Z,9.11
2022-10-28T06:24:34.125Z,9.22
2022-10-28T06:27:06.965Z,9.35
2022-10-28T06:29:39.768Z,9.47
2022-10-28T06:32:14.572Z,9.59
2022-10-28T06:34:49.521Z,9.67
2022-10-28T06:37:23.455Z,9.78
2022-10-28T06:39:57.645Z,9.90
2022-10-28T06:42:34.562Z,10.01
2022-10-28T06:45:08.798Z,10.13
2022-10-28T06:47:44.458Z,10.22
2022-10-28T06:50:17.149Z,10.28
2022-10-28T06:52:49.709Z,10.39
2022-10-28T06:55:22.358Z,10.50
2022-10-28T06:57:55.140Z,10.62
2022-10-28T07:00:28.451Z,10.74
2022-10-28T07:03:01.592Z,10.90
2022-10-28T07:05:34.892Z,11.02
2022-10-28T07:08:08.053Z,11.17
2022-10-28T07:10:40.997Z,11.40
2022-10-28T07:13:13.601Z,11.60
2022-10-28T07:15:46.699Z,11.79
2022-10-28T07:18:19.303Z,11.95
2022-10-28T07:20:53.793Z,12.01
2022-10-28T07:23:26.516Z,12.06
2022-10-28T07:26:00.295Z,12.14
2022-10-28T07:28:38.348Z,12.24
2022-10-28T07:33:55.067Z,12.51
2022-10-28T07:36:30.852Z,12.66
2022-10-28T07:39:03.534Z,12.80
2022-10-28T07:41:39.190Z,12.96
2022-10-28T07:44:11.873Z,13.08
2022-10-28T07:46:44.696Z,13.24
2022-10-28T07:49:17.842Z,13.43
2022-10-28T07:51:51.475Z,13.56
2022-10-28T07:54:24.162Z,13.69
2022-10-28T07:56:56.969Z,13.85
2022-10-28T07:59:29.735Z,13.95
2022-10-28T08:02:02.583Z,14.07
2022-10-28T08:04:35.830Z,14.22
2022-10-28T08:07:10.176Z,14.40
2022-10-28T08:09:43.032Z,14.55
2022-10-28T08:12:17.341Z,14.69
2022-10-28T08:14:49.687Z,14.87
2022-10-28T08:17:23.005Z,14.96
2022-10-28T08:19:55.492Z,15.08
2022-10-28T08:22:28.405Z,15.20
2022-10-28T08:25:00.946Z,15.38
2022-10-28T08:27:33.731Z,15.54
2022-10-28T08:30:07.254Z,15.71
2022-10-28T08:32:38.208Z,15.84
2022-10-28T08:35:12.127Z,15.87
2022-10-28T08:37:46.588Z,16.04
2022-10-28T08:40:21.068Z,16.17
2022-10-28T08:42:58.897Z,16.14
2022-10-28T08:45:44.597Z,16.24
2022-10-28T08:48:28.360Z,16.33
2022-10-28T08:51:08.101Z,16.45
2022-10-28T08:53:46.770Z,16.56
2022-10-28T08:56:27.436Z,16.55
2022-10-28T08:59:04.381Z,16.69
2022-10-28T09:01:44.662Z,16.73
2022-10-28T09:04:30.097Z,16.85
2022-10-28T09:07:02.957Z,16.98
2022-10-28T09:09:36.129Z,17.04
2022-10-28T09:12:24.921Z,17.09
2022-10-28T09:15:15.942Z,17.18
2022-10-28T09:17:56.540Z,17.26
2022-10-28T09:20:42.239Z,17.36
2022-10-28T09:23:23.034Z,17.49
2022-10-28T09:26:12.273Z,17.60
2022-10-28T09:29:00.642Z,17.65
2022-10-28T09:31:38.371Z,17.70
2022-10-28T09:34:26.541Z,17.85
2022-10-28T09:37:06.523Z,17.88
2022-10-28T09:39:46.080Z,17.90
2022-10-28T09:42:24.116Z,17.97
2022-10-28T09:45:00.800Z,17.93
2022-10-28T09:47:38.381Z,18.01
2022-10-28T09:50:19.131Z,17.99
2022-10-28T09:53:01.110Z,18.06
2022-10-28T09:55:34.414Z,18.17
2022-10-28T09:58:27.066Z,18.34
2022-10-28T10:00:59.680Z,18.30
2022-10-28T10:03:32.961Z,18.38
2022-10-28T10:06:14.051Z,18.58
2022-10-28T10:08:48.110Z,18.78
2022-10-28T10:11:29.643Z,18.90
2022-10-28T10:14:06.843Z,19.07
2022-10-28T10:16:44.726Z,19.17
2022-10-28T10:19:17.748Z,19.23
2022-10-28T10:21:52.942Z,19.32
2022-10-28T10:24:33.003Z,19.36
2022-10-28T10:27:16.223Z,19.38
2022-10-28T10:29:51.173Z,19.48
2022-10-28T10:32:28.116Z,19.57
2022-10-28T10:35:09.727Z,19.59
2022-10-28T10:37:47.747Z,19.63
2022-10-28T10:40:27.544Z,19.63
2022-10-28T10:43:15.976Z,19.67
2022-10-28T10:45:55.574Z,19.82
2022-10-28T10:48:28.394Z,19.86
2022-10-28T10:51:06.628Z,19.95
2022-10-28T10:53:40.194Z,20.06
2022-10-28T10:56:24.670Z,20.16
2022-10-28T10:59:01.655Z,20.28
2022-10-28T11:01:41.510Z,20.39
2022-10-28T11:04:21.633Z,20.44
2022-10-28T11:06:56.446Z,20.53
2022-10-28T11:09:35.494Z,20.53
2022-10-28T11:12:26.753Z,20.65
2022-10-28T11:15:01.704Z,20.76
2022-10-28T11:17:38.059Z,20.81
2022-10-28T11:20:28.176Z,20.91
2022-10-28T11:23:15.985Z,20.95
2022-10-28T11:25:51.115Z,21.04
2022-10-28T11:28:51.036Z,21.07
2022-10-28T11:31:45.194Z,21.12
2022-10-28T11:34:36.954Z,21.14
2022-10-28T11:37:17.585Z,21.13
2022-10-28T11:40:05.651Z,20.91
2022-10-28T11:42:48.163Z,20.83
2022-10-28T11:45:31.845Z,20.72
2022-10-28T11:48:18.455Z,20.61
2022-10-28T11:51:01.477Z,20.51
2022-10-28T11:54:01.485Z,20.47
2022-10-28T11:56:40.138Z,20.37
2022-10-28T11:59:35.404Z,20.34
2022-10-28T12:02:28.337Z,20.30
2022-10-28T12:05:13.795Z,20.24
2022-10-28T12:08:01.465Z,20.28
2022-10-28T12:10:44.505Z,20.33
2022-10-28T12:13:29.425Z,20.36
2022-10-28T12:16:09.177Z,20.35
2022-10-28T12:18:53.381Z,20.34
2022-10-28T12:24:14.162Z,20.34
2022-10-28T12:26:50.856Z,20.36
2022-10-28T12:29:28.715Z,20.36
2022-10-28T12:32:06.867Z,20.31
2022-10-28T12:34:46.696Z,20.27
2022-10-28T12:37:23.865Z,20.20
2022-10-28T12:40:03.629Z,20.10
2022-10-28T12:42:40.559Z,19.99
2022-10-28T12:45:19.103Z,19.91
2022-10-28T12:47:57.538Z,19.89
2022-10-28T12:50:36.234Z,19.83
2022-10-28T12:53:26.472Z,19.78
2022-10-28T12:56:02.391Z,19.72
2022-10-28T12:58:40.174Z,19.72
2022-10-28T13:01:15.896Z,19.67
2022-10-28T13:03:50.974Z,19.65
2022-10-28T13:06:51.123Z,19.59
2022-10-28T13:09:47.105Z,19.53
2022-10-28T13:12:55.307Z,19.56
2022-10-28T13:15:47.274Z,19.55
2022-10-28T13:19:00.971Z,19.56
2022-10-28T13:21:55.578Z,19.52
2022-10-28T13:24:36.354Z,19.54
2022-10-28T13:27:12.787Z,19.54
2022-10-28T13:29:51.625Z,19.49
2022-10-28T13:32:38.774Z,19.50
2022-10-28T13:35:26.605Z,19.43
2022-10-28T13:38:00.453Z,19.42
2022-10-28T13:41:07.310Z,19.36
2022-10-28T13:44:02.200Z,19.20
2022-10-28T13:47:21.014Z,19.18
2022-10-28T13:50:27.492Z,19.06
2022-10-28T13:53:43.145Z,19.01
2022-10-28T13:56:38.807Z,18.98
2022-10-28T13:59:24.223Z,18.92
2022-10-28T14:02:32.427Z,18.89
2022-10-28T14:05:01.288Z,18.86
2022-10-28T14:07:36.763Z,18.83
2022-10-28T14:10:27.163Z,18.77
2022-10-28T14:13:02.436Z,18.75
2022-10-28T14:15:36.482Z,18.70
2022-10-28T14:21:18.113Z,18.71
2022-10-28T14:24:33.281Z,18.73
2022-10-28T14:27:33.031Z,18.70
2022-10-28T14:30:25.960Z,18.69
2022-10-28T14:33:21.352Z,18.69
2022-10-28T14:36:09.551Z,18.68
2022-10-28T14:39:33.952Z,18.67
2022-10-28T14:42:23.461Z,18.63
2022-10-28T14:45:09.678Z,18.62
2022-10-28T14:47:59.202Z,18.62
2022-10-28T14:50:40.370Z,18.61
2022-10-28T14:53:20.439Z,18.59
2022-10-28T14:55:59.409Z,18.56
2022-10-28T14:58:39.179Z,18.55
2022-10-28T15:01:28.200Z,18.53
2022-10-28T15:04:03.349Z,18.47
2022-10-28T15:06:42.999Z,18.38
2022-10-28T15:09:22.159Z,18.30
2022-10-28T15:11:59.564Z,18.24
2022-10-28T15:14:37.008Z,18.19
2022-10-28T15:17:16.827Z,18.13
2022-10-28T15:19:52.972Z,18.08
2022-10-28T15:22:31.019Z,17.97
2022-10-28T15:25:06.469Z,17.88
2022-10-28T15:27:40.920Z,17.77
2022-10-28T15:30:19.479Z,17.69
2022-10-28T15:32:52.007Z,17.59
2022-10-28T15:35:43.845Z,17.54
2022-10-28T15:38:45.628Z,17.46
2022-10-28T15:41:52.942Z,17.37
2022-10-28T15:44:40.317Z,17.28
2022-10-28T15:47:26.938Z,17.19
2022-10-28T15:50:22.640Z,17.14
2022-10-28T15:52:57.728Z,17.08
2022-10-28T15:55:54.707Z,17.05
2022-10-28T15:58:43.180Z,16.95
2022-10-28T16:01:32.583Z,16.85
2022-10-28T16:04:05.667Z,16.77
2022-10-28T16:06:41.728Z,16.72
2022-10-28T16:09:27.018Z,16.61
2022-10-28T16:12:02.520Z,16.54
2022-10-28T16:14:40.639Z,16.49
2022-10-28T16:17:18.697Z,16.46
2022-10-28T16:19:57.692Z,16.38
2022-10-28T16:22:35.737Z,16.28
2022-10-28T16:25:16.951Z,16.18
2022-10-28T16:27:52.226Z,16.10
2022-10-28T16:30:25.152Z,15.98
2022-10-28T16:32:58.252Z,15.82
2022-10-28T16:35:31.125Z,15.68
2022-10-28T16:38:04.567Z,15.67
2022-10-28T16:40:51.078Z,15.61
2022-10-28T16:43:25.555Z,15.57
2022-10-28T16:45:59.250Z,15.53
2022-10-28T16:48:32.727Z,15.47
2022-10-28T16:51:07.513Z,15.44
2022-10-28T16:53:41.378Z,15.36
2022-10-28T16:56:16.046Z,15.26
2022-10-28T16:58:49.687Z,15.22
2022-10-28T17:01:25.296Z,15.13
2022-10-28T17:04:09.000Z,15.10
2022-10-28T17:06:45.018Z,15.08
2022-10-28T17:09:18.978Z,15.05
2022-10-28T17:11:52.828Z,15.01
2022-10-28T17:14:29.847Z,14.94
2022-10-28T17:17:02.930Z,14.87
2022-10-28T17:19:36.229Z,14.78
2022-10-28T17:22:10.807Z,14.76
2022-10-28T17:24:43.739Z,14.76
2022-10-28T17:27:17.447Z,14.77
2022-10-28T17:29:50.189Z,14.72
2022-10-28T17:32:25.599Z,14.62
2022-10-28T17:34:59.225Z,14.63
2022-10-28T17:37:33.143Z,14.62
2022-10-28T17:40:06.648Z,14.59
2022-10-28T17:42:42.182Z,14.64
2022-10-28T17:45:19.427Z,14.59
2022-10-28T17:47:53.828Z,14.62
2022-10-28T17:50:26.583Z,14.65
2022-10-28T17:52:59.131Z,14.65
2022-10-28T17:55:31.718Z,14.64
2022-10-28T17:58:04.338Z,14.63
2022-10-28T18:00:37.238Z,14.62
2022-10-28T18:03:11.402Z,14.60
2022-10-28T18:05:44.090Z,14.60
2022-10-28T18:08:16.561Z,14.57
2022-10-28T18:10:57.728Z,14.56
2022-10-28T18:13:32.400Z,14.52
2022-10-28T18:16:09.762Z,14.49
2022-10-28T18:18:43.015Z,14.46
2022-10-28T18:21:15.338Z,14.42
2022-10-28T18:23:52.388Z,14.27
2022-10-28T18:26:27.938Z,14.29
2022-10-28T18:29:04.258Z,14.29
2022-10-28T18:31:44.866Z,14.26
2022-10-28T18:34:19.082Z,14.26
2022-10-28T18:36:52.188Z,14.24
2022-10-28T18:39:25.228Z,14.25
2022-10-28T18:41:58.262Z,14.24
2022-10-28T18:44:32.348Z,14.24
2022-10-28T18:47:04.999Z,14.22
2022-10-28T18:49:37.608Z,14.22
2022-10-28T18:52:10.518Z,14.18
2022-10-28T18:54:43.059Z,14.17
2022-10-28T18:57:17.449Z,14.13
2022-10-28T19:00:17.501Z,14.11
2022-10-28T19:02:47.724Z,14.08
2022-10-28T19:05:21.938Z,14.07
2022-10-28T19:08:03.078Z,14.04
2022-10-28T19:10:36.072Z,14.02
2022-10-28T19:13:09.112Z,14.01
2022-10-28T19:15:47.239Z,13.95
2022-10-28T19:18:22.781Z,13.89
2022-10-28T19:20:57.518Z,13.87
2022-10-28T19:23:33.708Z,13.86
2022-10-28T19:26:13.411Z,13.84
2022-10-28T19:28:48.594Z,13.80
2022-10-28T19:31:29.988Z,13.80
2022-10-28T19:34:03.401Z,13.77
2022-10-28T19:36:39.969Z,13.76
2022-10-28T19:39:12.659Z,13.73
2022-10-28T19:41:45.499Z,13.70
2022-10-28T19:44:19.098Z,13.67
2022-10-28T19:46:52.288Z,13.63
2022-10-28T19:49:27.781Z,13.64
2022-10-28T19:52:02.989Z,13.57
2022-10-28T19:54:41.132Z,13.57
2022-10-28T19:59:51.530Z,13.57
2022-10-28T20:02:23.068Z,13.55
2022-10-28T20:04:57.680Z,13.48
2022-10-28T20:07:32.743Z,13.44
2022-10-28T20:10:05.872Z,13.43
2022-10-28T20:12:38.579Z,13.43
2022-10-28T20:15:17.271Z,13.40
2022-10-28T20:17:49.961Z,13.34
2022-10-28T20:20:22.527Z,13.35
2022-10-28T20:22:55.118Z,13.34
2022-10-28T20:25:28.119Z,13.31
2022-10-28T20:28:00.507Z,13.24
2022-10-28T20:30:36.169Z,13.21
2022-10-28T20:33:10.219Z,13.19
2022-10-28T20:35:43.043Z,13.17
2022-10-28T20:38:15.585Z,13.15
2022-10-28T20:40:52.169Z,13.11
2022-10-28T20:43:27.329Z,13.06
2022-10-28T20:46:01.729Z,13.00
2022-10-28T20:48:34.429Z,12.92
2022-10-28T20:51:07.558Z,12.88
2022-10-28T20:53:40.930Z,12.85
2022-10-28T20:56:19.118Z,12.82
2022-10-28T20:58:51.870Z,12.79
2022-10-28T21:01:27.176Z,12.78
2022-10-28T21:04:01.302Z,12.74
2022-10-28T21:06:54.047Z,12.70
2022-10-28T21:09:26.497Z,12.68
2022-10-28T21:12:01.931Z,12.66
2022-10-28T21:14:34.617Z,12.66
2022-10-28T21:17:07.407Z,12.66
2022-10-28T21:19:40.068Z,12.64
2022-10-28T21:22:14.129Z,12.61
2022-10-28T21:24:46.940Z,12.61
2022-10-28T21:27:19.648Z,12.61
2022-10-28T21:29:52.591Z,12.58
2022-10-28T21:32:25.640Z,12.59
2022-10-28T21:34:58.579Z,12.58
2022-10-28T21:37:32.679Z,12.58
2022-10-28T21:40:05.850Z,12.57
2022-10-28T21:42:39.169Z,12.56
2022-10-28T21:45:12.778Z,12.54
2022-10-28T21:47:47.979Z,12.50
2022-10-28T21:50:21.969Z,12.47
2022-10-28T21:55:45.785Z,12.40
2022-10-28T21:58:19.869Z,12.37
2022-10-28T22:00:52.402Z,12.36
2022-10-28T22:03:25.148Z,12.34
2022-10-28T22:05:57.679Z,12.31
2022-10-28T22:08:30.540Z,12.31
2022-10-28T22:11:04.798Z,12.29
2022-10-28T22:13:37.549Z,12.26
2022-10-28T22:16:14.433Z,12.22
2022-10-28T22:18:48.013Z,12.18
2022-10-28T22:21:20.035Z,12.18
2022-10-28T22:23:52.980Z,12.12
2022-10-28T22:26:28.306Z,12.12
2022-10-28T22:29:01.648Z,12.09
2022-10-28T22:31:35.508Z,12.08
2022-10-28T22:34:08.518Z,12.06
2022-10-28T22:36:43.558Z,12.03
2022-10-28T22:39:16.331Z,12.00
2022-10-28T22:41:48.937Z,11.99
2022-10-28T22:44:21.564Z,11.96
2022-10-28T22:46:54.150Z,11.94
2022-10-28T22:49:27.534Z,11.92
2022-10-28T22:52:00.960Z,11.89
2022-10-28T22:54:33.676Z,11.86
2022-10-28T22:57:07.778Z,11.86
2022-10-28T22:59:40.692Z,11.85
2022-10-28T23:02:13.314Z,11.84
2022-10-28T23:04:46.259Z,11.83
2022-10-28T23:07:18.984Z,11.81
2022-10-28T23:09:51.608Z,11.80
2022-10-28T23:12:24.533Z,11.78
2022-10-28T23:14:59.061Z,11.77
2022-10-28T23:17:31.838Z,11.77
2022-10-28T23:20:04.609Z,11.77
2022-10-28T23:22:37.858Z,11.76
2022-10-28T23:25:12.017Z,11.73
2022-10-28T23:27:44.869Z,11.71
2022-10-28T23:30:18.146Z,11.69
2022-10-28T23:32:50.749Z,11.66
2022-10-28T23:35:23.358Z,11.62
2022-10-28T23:37:56.326Z,11.59
2022-10-28T23:40:29.738Z,11.59
2022-10-28T23:43:02.598Z,11.62
2022-10-28T23:45:35.209Z,11.64
2022-10-28T23:48:08.338Z,11.64
2022-10-28T23:50:41.248Z,11.62
2022-10-28T23:53:13.960Z,11.61
2022-10-28T23:55:46.079Z,11.62
2022-10-28T23:58:20.560Z,11.57
